sensor_id;sensor_type;location;lat;lon;timestamp;pressure;altitude;pressure_sealevel;temperature;humidity
77450;BME280;66536;53.150;18.172;2023-09-19T00:03:05;100365.72;;;19.83;68.92
77450;BME280;66536;53.150;18.172;2023-09-19T00:05:46;100369.69;;;19.81;69.10
77450;BME280;66536;53.150;18.172;2023-09-19T00:08:26;100371.49;;;19.78;69.17
77450;BME280;66536;53.150;18.172;2023-09-19T00:11:06;100367.27;;;19.75;69.30
77450;BME280;66536;53.150;18.172;2023-09-19T00:13:48;100372.22;;;19.72;69.42
77450;BME280;66536;53.150;18.172;2023-09-19T00:16:27;100369.15;;;19.68;70.00
77450;BME280;66536;53.150;18.172;2023-09-19T00:19:07;100369.08;;;19.63;70.04
77450;BME280;66536;53.150;18.172;2023-09-19T00:21:48;100372.34;;;19.61;70.05
77450;BME280;66536;53.150;18.172;2023-09-19T00:24:35;100377.70;;;19.60;70.15
77450;BME280;66536;53.150;18.172;2023-09-19T00:27:29;100382.50;;;19.59;70.47
77450;BME280;66536;53.150;18.172;2023-09-19T00:30:27;100384.76;;;19.57;70.78
77450;BME280;66536;53.150;18.172;2023-09-19T00:33:01;100381.94;;;19.55;70.93
77450;BME280;66536;53.150;18.172;2023-09-19T00:35:49;100384.37;;;19.54;70.99
77450;BME280;66536;53.150;18.172;2023-09-19T00:38:23;100386.31;;;19.53;71.09
77450;BME280;66536;53.150;18.172;2023-09-19T00:41:09;100385.27;;;19.52;71.35
77450;BME280;66536;53.150;18.172;2023-09-19T00:43:43;100388.27;;;19.51;71.48
77450;BME280;66536;53.150;18.172;2023-09-19T00:46:31;100384.19;;;19.49;71.66
77450;BME280;66536;53.150;18.172;2023-09-19T00:49:07;100384.52;;;19.48;71.72
77450;BME280;66536;53.150;18.172;2023-09-19T00:51:42;100379.95;;;19.44;72.01
77450;BME280;66536;53.150;18.172;2023-09-19T00:54:22;100374.05;;;19.41;72.26
77450;BME280;66536;53.150;18.172;2023-09-19T00:56:56;100374.16;;;19.38;73.08
77450;BME280;66536;53.150;18.172;2023-09-19T00:59:29;100366.09;;;19.37;73.04
77450;BME280;66536;53.150;18.172;2023-09-19T01:02:08;100366.30;;;19.37;72.81
77450;BME280;66536;53.150;18.172;2023-09-19T01:04:49;100363.00;;;19.36;72.90
77450;BME280;66536;53.150;18.172;2023-09-19T01:07:30;100359.20;;;19.38;72.92
77450;BME280;66536;53.150;18.172;2023-09-19T01:10:15;100352.52;;;19.40;72.95
77450;BME280;66536;53.150;18.172;2023-09-19T01:13:05;100355.61;;;19.43;72.85
77450;BME280;66536;53.150;18.172;2023-09-19T01:19:07;100360.83;;;19.47;72.76
77450;BME280;66536;53.150;18.172;2023-09-19T01:21:59;100357.77;;;19.50;72.99
77450;BME280;66536;53.150;18.172;2023-09-19T01:25:15;100358.21;;;19.52;72.76
77450;BME280;66536;53.150;18.172;2023-09-19T01:28:13;100357.84;;;19.55;72.78
77450;BME280;66536;53.150;18.172;2023-09-19T01:31:03;100350.41;;;19.57;73.28
77450;BME280;66536;53.150;18.172;2023-09-19T01:33:54;100339.52;;;19.63;73.12
77450;BME280;66536;53.150;18.172;2023-09-19T01:36:43;100335.16;;;19.69;72.96
77450;BME280;66536;53.150;18.172;2023-09-19T01:39:18;100336.23;;;19.73;72.91
77450;BME280;66536;53.150;18.172;2023-09-19T01:42:13;100327.33;;;19.77;72.70
77450;BME280;66536;53.150;18.172;2023-09-19T01:45:12;100326.30;;;19.80;72.81
77450;BME280;66536;53.150;18.172;2023-09-19T01:48:15;100320.30;;;19.83;72.70
77450;BME280;66536;53.150;18.172;2023-09-19T01:50:59;100324.70;;;19.85;72.51
77450;BME280;66536;53.150;18.172;2023-09-19T01:54:06;100328.29;;;19.87;72.55
77450;BME280;66536;53.150;18.172;2023-09-19T01:57:16;100333.27;;;19.89;72.52
77450;BME280;66536;53.150;18.172;2023-09-19T02:00:12;100337.29;;;19.91;72.45
77450;BME280;66536;53.150;18.172;2023-09-19T02:03:07;100340.80;;;19.92;72.46
77450;BME280;66536;53.150;18.172;2023-09-19T02:06:02;100336.51;;;19.92;72.47
77450;BME280;66536;53.150;18.172;2023-09-19T02:08:58;100339.19;;;19.91;72.61
77450;BME280;66536;53.150;18.172;2023-09-19T02:11:52;100339.19;;;19.91;72.49
77450;BME280;66536;53.150;18.172;2023-09-19T02:14:47;100342.04;;;19.89;72.89
77450;BME280;66536;53.150;18.172;2023-09-19T02:17:43;100351.25;;;19.87;73.11
77450;BME280;66536;53.150;18.172;2023-09-19T02:20:37;100360.31;;;19.83;73.44
77450;BME280;66536;53.150;18.172;2023-09-19T02:23:12;100350.26;;;19.80;73.53
77450;BME280;66536;53.150;18.172;2023-09-19T02:25:59;100334.46;;;19.78;73.71
77450;BME280;66536;53.150;18.172;2023-09-19T02:28:34;100329.17;;;19.76;73.78
77450;BME280;66536;53.150;18.172;2023-09-19T02:31:21;100330.87;;;19.74;73.85
77450;BME280;66536;53.150;18.172;2023-09-19T02:33:54;100338.41;;;19.70;74.39
77450;BME280;66536;53.150;18.172;2023-09-19T02:36:41;100345.48;;;19.65;74.77
77450;BME280;66536;53.150;18.172;2023-09-19T02:39:14;100332.86;;;19.61;75.33
77450;BME280;66536;53.150;18.172;2023-09-19T02:42:01;100335.14;;;19.58;75.52
77450;BME280;66536;53.150;18.172;2023-09-19T02:44:35;100340.61;;;19.55;75.65
77450;BME280;66536;53.150;18.172;2023-09-19T02:47:22;100342.16;;;19.53;75.65
77450;BME280;66536;53.150;18.172;2023-09-19T02:50:03;100353.86;;;19.51;76.05
77450;BME280;66536;53.150;18.172;2023-09-19T02:52:58;100354.84;;;19.47;76.32
77450;BME280;66536;53.150;18.172;2023-09-19T02:55:52;100357.77;;;19.43;76.71
77450;BME280;66536;53.150;18.172;2023-09-19T02:58:46;100360.44;;;19.41;76.86
77450;BME280;66536;53.150;18.172;2023-09-19T03:01:40;100368.55;;;19.36;77.53
77450;BME280;66536;53.150;18.172;2023-09-19T03:04:38;100370.89;;;19.32;77.95
77450;BME280;66536;53.150;18.172;2023-09-19T03:07:32;100367.26;;;19.29;78.28
77450;BME280;66536;53.150;18.172;2023-09-19T03:10:26;100365.71;;;19.22;79.00
77450;BME280;66536;53.150;18.172;2023-09-19T03:13:20;100370.52;;;19.17;79.32
77450;BME280;66536;53.150;18.172;2023-09-19T03:16:14;100379.88;;;19.12;80.09
77450;BME280;66536;53.150;18.172;2023-09-19T03:19:11;100379.86;;;19.04;81.02
77450;BME280;66536;53.150;18.172;2023-09-19T03:22:06;100377.63;;;18.97;81.34
77450;BME280;66536;53.150;18.172;2023-09-19T03:24:40;100379.11;;;18.93;81.74
77450;BME280;66536;53.150;18.172;2023-09-19T03:27:28;100365.75;;;18.88;81.90
77450;BME280;66536;53.150;18.172;2023-09-19T03:30:01;100366.48;;;18.86;82.09
77450;BME280;66536;53.150;18.172;2023-09-19T03:32:49;100364.98;;;18.86;82.26
77450;BME280;66536;53.150;18.172;2023-09-19T03:35:22;100369.17;;;18.85;82.42
77450;BME280;66536;53.150;18.172;2023-09-19T03:38:09;100370.75;;;18.84;82.84
77450;BME280;66536;53.150;18.172;2023-09-19T03:40:43;100370.66;;;18.83;83.17
77450;BME280;66536;53.150;18.172;2023-09-19T03:43:32;100370.30;;;18.80;83.08
77450;BME280;66536;53.150;18.172;2023-09-19T03:46:06;100366.41;;;18.79;83.24
77450;BME280;66536;53.150;18.172;2023-09-19T03:48:55;100369.41;;;18.79;83.24
77450;BME280;66536;53.150;18.172;2023-09-19T03:51:28;100365.42;;;18.79;83.27
77450;BME280;66536;53.150;18.172;2023-09-19T03:54:22;100363.63;;;18.80;83.47
77450;BME280;66536;53.150;18.172;2023-09-19T03:57:16;100362.74;;;18.80;83.93
77450;BME280;66536;53.150;18.172;2023-09-19T04:00:11;100368.73;;;18.78;83.93
77450;BME280;66536;53.150;18.172;2023-09-19T04:03:08;100368.80;;;18.75;83.88
77450;BME280;66536;53.150;18.172;2023-09-19T04:06:09;100369.79;;;18.74;84.17
77450;BME280;66536;53.150;18.172;2023-09-19T04:09:03;100369.58;;;18.74;84.21
77450;BME280;66536;53.150;18.172;2023-09-19T04:11:58;100367.01;;;18.74;84.24
77450;BME280;66536;53.150;18.172;2023-09-19T04:14:52;100363.29;;;18.75;84.25
77450;BME280;66536;53.150;18.172;2023-09-19T04:17:46;100365.17;;;18.75;84.50
77450;BME280;66536;53.150;18.172;2023-09-19T04:20:40;100362.02;;;18.75;84.55
77450;BME280;66536;53.150;18.172;2023-09-19T04:23:34;100360.29;;;18.76;84.83
77450;BME280;66536;53.150;18.172;2023-09-19T04:26:07;100355.61;;;18.79;85.07
77450;BME280;66536;53.150;18.172;2023-09-19T04:28:56;100352.09;;;18.80;85.03
77450;BME280;66536;53.150;18.172;2023-09-19T04:31:29;100347.91;;;18.82;84.99
77450;BME280;66536;53.150;18.172;2023-09-19T04:34:21;100345.21;;;18.84;85.06
77450;BME280;66536;53.150;18.172;2023-09-19T04:36:55;100351.96;;;18.86;85.12
77450;BME280;66536;53.150;18.172;2023-09-19T04:39:42;100345.83;;;18.88;84.84
77450;BME280;66536;53.150;18.172;2023-09-19T04:42:16;100346.03;;;18.88;84.91
77450;BME280;66536;53.150;18.172;2023-09-19T04:45:05;100361.71;;;18.88;84.74
77450;BME280;66536;53.150;18.172;2023-09-19T04:47:39;100359.36;;;18.89;84.69
77450;BME280;66536;53.150;18.172;2023-09-19T04:50:26;100361.04;;;18.88;84.60
77450;BME280;66536;53.150;18.172;2023-09-19T04:53:01;100369.08;;;18.87;84.43
77450;BME280;66536;53.150;18.172;2023-09-19T04:55:51;100364.97;;;18.87;84.63
77450;BME280;66536;53.150;18.172;2023-09-19T04:58:26;100359.88;;;18.89;84.70
77450;BME280;66536;53.150;18.172;2023-09-19T05:01:13;100359.14;;;18.92;84.77
77450;BME280;66536;53.150;18.172;2023-09-19T05:03:49;100362.69;;;18.95;84.56
77450;BME280;66536;53.150;18.172;2023-09-19T05:06:36;100358.05;;;18.98;84.66
77450;BME280;66536;53.150;18.172;2023-09-19T05:09:16;100355.84;;;19.03;84.64
77450;BME280;66536;53.150;18.172;2023-09-19T05:12:03;100353.66;;;19.07;84.74
77450;BME280;66536;53.150;18.172;2023-09-19T05:14:36;100346.45;;;19.13;84.48
77450;BME280;66536;53.150;18.172;2023-09-19T05:17:23;100349.89;;;19.18;84.51
77450;BME280;66536;53.150;18.172;2023-09-19T05:19:57;100349.03;;;19.22;84.34
77450;BME280;66536;53.150;18.172;2023-09-19T05:23:02;100350.84;;;19.26;84.32
77450;BME280;66536;53.150;18.172;2023-09-19T05:25:57;100353.45;;;19.33;84.21
77450;BME280;66536;53.150;18.172;2023-09-19T05:28:45;100358.05;;;19.39;84.10
77450;BME280;66536;53.150;18.172;2023-09-19T05:31:18;100358.85;;;19.44;83.88
77450;BME280;66536;53.150;18.172;2023-09-19T05:33:54;100363.80;;;19.50;83.66
77450;BME280;66536;53.150;18.172;2023-09-19T05:36:36;100362.73;;;19.55;83.59
77450;BME280;66536;53.150;18.172;2023-09-19T05:39:15;100361.65;;;19.59;83.49
77450;BME280;66536;53.150;18.172;2023-09-19T05:42:06;100368.30;;;19.63;83.46
77450;BME280;66536;53.150;18.172;2023-09-19T05:44:48;100371.87;;;19.69;83.41
77450;BME280;66536;53.150;18.172;2023-09-19T05:47:29;100381.36;;;19.74;83.27
77450;BME280;66536;53.150;18.172;2023-09-19T05:50:10;100375.27;;;19.70;82.78
77450;BME280;66536;53.150;18.172;2023-09-19T05:52:52;100376.30;;;19.60;82.92
77450;BME280;66536;53.150;18.172;2023-09-19T05:55:32;100380.16;;;19.54;82.94
77450;BME280;66536;53.150;18.172;2023-09-19T05:58:13;100381.02;;;19.53;82.99
77450;BME280;66536;53.150;18.172;2023-09-19T06:00:53;100381.51;;;19.48;82.95
77450;BME280;66536;53.150;18.172;2023-09-19T06:03:35;100375.88;;;19.42;82.98
77450;BME280;66536;53.150;18.172;2023-09-19T06:06:16;100372.54;;;19.38;82.92
77450;BME280;66536;53.150;18.172;2023-09-19T06:08:58;100373.48;;;19.37;83.01
77450;BME280;66536;53.150;18.172;2023-09-19T06:11:31;100375.34;;;19.35;82.93
77450;BME280;66536;53.150;18.172;2023-09-19T06:14:18;100380.36;;;19.38;82.88
77450;BME280;66536;53.150;18.172;2023-09-19T06:16:52;100384.35;;;19.38;82.72
77450;BME280;66536;53.150;18.172;2023-09-19T06:23:44;100387.61;;;19.18;82.87
77450;BME280;66536;53.150;18.172;2023-09-19T06:26:51;100389.92;;;19.07;83.14
77450;BME280;66536;53.150;18.172;2023-09-19T06:29:25;100397.19;;;18.99;83.18
77450;BME280;66536;53.150;18.172;2023-09-19T06:32:12;100401.56;;;18.95;83.30
77450;BME280;66536;53.150;18.172;2023-09-19T06:34:45;100408.55;;;18.92;83.43
77450;BME280;66536;53.150;18.172;2023-09-19T06:37:53;100411.70;;;18.88;83.43
77450;BME280;66536;53.150;18.172;2023-09-19T06:40:26;100419.23;;;18.80;83.58
77450;BME280;66536;53.150;18.172;2023-09-19T06:43:17;100425.48;;;18.75;83.38
77450;BME280;66536;53.150;18.172;2023-09-19T06:45:51;100422.16;;;18.79;83.47
77450;BME280;66536;53.150;18.172;2023-09-19T06:48:38;100421.69;;;18.83;83.41
77450;BME280;66536;53.150;18.172;2023-09-19T06:51:13;100426.30;;;18.85;83.17
77450;BME280;66536;53.150;18.172;2023-09-19T06:54:01;100427.02;;;18.91;83.09
77450;BME280;66536;53.150;18.172;2023-09-19T07:00:17;100436.77;;;19.09;82.83
77450;BME280;66536;53.150;18.172;2023-09-19T07:03:02;100438.80;;;19.11;82.76
77450;BME280;66536;53.150;18.172;2023-09-19T07:05:51;100441.75;;;19.13;82.44
77450;BME280;66536;53.150;18.172;2023-09-19T07:08:25;100443.52;;;19.18;82.55
77450;BME280;66536;53.150;18.172;2023-09-19T07:11:12;100444.43;;;19.23;82.59
77450;BME280;66536;53.150;18.172;2023-09-19T07:13:45;100445.57;;;19.29;81.91
77450;BME280;66536;53.150;18.172;2023-09-19T07:16:32;100442.35;;;19.38;81.98
77450;BME280;66536;53.150;18.172;2023-09-19T07:19:09;100441.14;;;19.51;81.48
77450;BME280;66536;53.150;18.172;2023-09-19T07:21:56;100444.36;;;19.59;81.24
77450;BME280;66536;53.150;18.172;2023-09-19T07:24:32;100448.84;;;19.66;80.97
77450;BME280;66536;53.150;18.172;2023-09-19T07:27:26;100446.95;;;19.83;80.77
77450;BME280;66536;53.150;18.172;2023-09-19T07:30:20;100448.15;;;20.07;79.91
77450;BME280;66536;53.150;18.172;2023-09-19T07:33:16;100445.78;;;20.32;79.15
77450;BME280;66536;53.150;18.172;2023-09-19T07:36:13;100449.17;;;20.48;78.82
77450;BME280;66536;53.150;18.172;2023-09-19T07:39:07;100446.58;;;20.61;78.56
77450;BME280;66536;53.150;18.172;2023-09-19T07:42:05;100456.72;;;20.62;77.39
77450;BME280;66536;53.150;18.172;2023-09-19T07:44:41;100457.54;;;20.53;78.08
77450;BME280;66536;53.150;18.172;2023-09-19T07:47:30;100458.63;;;20.60;77.43
77450;BME280;66536;53.150;18.172;2023-09-19T07:50:08;100459.55;;;20.68;77.61
77450;BME280;66536;53.150;18.172;2023-09-19T07:53:01;100461.46;;;20.77;77.31
77450;BME280;66536;53.150;18.172;2023-09-19T07:55:38;100461.92;;;20.83;76.35
77450;BME280;66536;53.150;18.172;2023-09-19T07:58:31;100472.09;;;20.83;76.04
77450;BME280;66536;53.150;18.172;2023-09-19T08:01:07;100470.56;;;20.89;75.74
77450;BME280;66536;53.150;18.172;2023-09-19T08:03:56;100481.45;;;20.94;74.44
77450;BME280;66536;53.150;18.172;2023-09-19T08:06:34;100481.23;;;20.79;74.82
77450;BME280;66536;53.150;18.172;2023-09-19T08:09:22;100485.73;;;20.77;75.12
77450;BME280;66536;53.150;18.172;2023-09-19T08:11:56;100486.63;;;20.70;74.93
77450;BME280;66536;53.150;18.172;2023-09-19T08:14:44;100487.04;;;20.60;75.40
77450;BME280;66536;53.150;18.172;2023-09-19T08:17:17;100487.04;;;20.53;75.26
77450;BME280;66536;53.150;18.172;2023-09-19T08:20:05;100491.59;;;20.38;75.83
77450;BME280;66536;53.150;18.172;2023-09-19T08:22:50;100495.94;;;20.39;75.98
77450;BME280;66536;53.150;18.172;2023-09-19T08:25:38;100498.16;;;20.58;75.78
77450;BME280;66536;53.150;18.172;2023-09-19T08:28:12;100501.13;;;20.90;75.60
77450;BME280;66536;53.150;18.172;2023-09-19T08:31:07;100502.69;;;21.25;74.81
77450;BME280;66536;53.150;18.172;2023-09-19T08:33:50;100501.29;;;21.61;73.93
77450;BME280;66536;53.150;18.172;2023-09-19T08:36:37;100505.17;;;22.03;72.80
77450;BME280;66536;53.150;18.172;2023-09-19T08:39:18;100505.92;;;22.22;71.85
77450;BME280;66536;53.150;18.172;2023-09-19T08:42:03;100512.60;;;22.22;71.81
77450;BME280;66536;53.150;18.172;2023-09-19T08:44:44;100516.60;;;22.17;71.75
77450;BME280;66536;53.150;18.172;2023-09-19T08:47:41;100524.27;;;22.21;71.19
77450;BME280;66536;53.150;18.172;2023-09-19T08:50:28;100524.64;;;22.10;70.39
77450;BME280;66536;53.150;18.172;2023-09-19T08:53:11;100527.09;;;22.16;70.42
77450;BME280;66536;53.150;18.172;2023-09-19T08:55:55;100530.31;;;22.43;69.93
77450;BME280;66536;53.150;18.172;2023-09-19T08:58:44;100533.54;;;22.70;68.64
77450;BME280;66536;53.150;18.172;2023-09-19T09:01:28;100534.05;;;22.87;67.92
77450;BME280;66536;53.150;18.172;2023-09-19T09:04:11;100534.86;;;23.04;67.59
77450;BME280;66536;53.150;18.172;2023-09-19T09:06:55;100532.46;;;23.14;67.04
77450;BME280;66536;53.150;18.172;2023-09-19T09:09:36;100530.10;;;23.31;66.81
77450;BME280;66536;53.150;18.172;2023-09-19T09:12:17;100529.36;;;23.52;65.28
77450;BME280;66536;53.150;18.172;2023-09-19T09:14:50;100526.61;;;23.57;64.73
77450;BME280;66536;53.150;18.172;2023-09-19T09:17:37;100526.23;;;23.58;64.47
77450;BME280;66536;53.150;18.172;2023-09-19T09:20:11;100528.27;;;23.69;64.83
77450;BME280;66536;53.150;18.172;2023-09-19T09:22:59;100536.77;;;23.69;63.33
77450;BME280;66536;53.150;18.172;2023-09-19T09:25:52;100533.25;;;23.48;64.08
77450;BME280;66536;53.150;18.172;2023-09-19T09:28:46;100540.80;;;23.26;63.48
77450;BME280;66536;53.150;18.172;2023-09-19T09:31:41;100545.54;;;22.94;64.87
77450;BME280;66536;53.150;18.172;2023-09-19T09:34:33;100546.56;;;22.81;65.21
77450;BME280;66536;53.150;18.172;2023-09-19T09:37:13;100552.32;;;22.90;64.85
77450;BME280;66536;53.150;18.172;2023-09-19T09:40:02;100552.14;;;23.28;64.15
77450;BME280;66536;53.150;18.172;2023-09-19T09:42:46;100548.45;;;23.49;63.21
77450;BME280;66536;53.150;18.172;2023-09-19T09:45:38;100543.16;;;23.65;62.94
77450;BME280;66536;53.150;18.172;2023-09-19T09:48:12;100539.42;;;23.94;62.14
77450;BME280;66536;53.150;18.172;2023-09-19T09:51:11;100542.11;;;24.24;61.76
77450;BME280;66536;53.150;18.172;2023-09-19T09:53:50;100542.63;;;24.51;60.40
77450;BME280;66536;53.150;18.172;2023-09-19T09:56:53;100547.33;;;24.72;59.64
77450;BME280;66536;53.150;18.172;2023-09-19T09:59:51;100544.05;;;24.84;57.76
77450;BME280;66536;53.150;18.172;2023-09-19T10:02:45;100542.08;;;24.70;57.24
77450;BME280;66536;53.150;18.172;2023-09-19T10:05:20;100543.73;;;24.39;58.01
77450;BME280;66536;53.150;18.172;2023-09-19T10:08:11;100543.57;;;24.23;57.82
77450;BME280;66536;53.150;18.172;2023-09-19T10:10:45;100552.92;;;24.16;58.53
77450;BME280;66536;53.150;18.172;2023-09-19T10:13:42;100550.13;;;24.16;58.04
77450;BME280;66536;53.150;18.172;2023-09-19T10:16:19;100551.52;;;24.23;57.57
77450;BME280;66536;53.150;18.172;2023-09-19T10:19:10;100554.16;;;24.37;57.26
77450;BME280;66536;53.150;18.172;2023-09-19T10:21:50;100560.54;;;24.37;56.27
77450;BME280;66536;53.150;18.172;2023-09-19T10:24:38;100544.74;;;24.10;56.74
77450;BME280;66536;53.150;18.172;2023-09-19T10:27:22;100565.88;;;24.07;56.98
77450;BME280;66536;53.150;18.172;2023-09-19T10:30:18;100571.05;;;24.15;56.30
77450;BME280;66536;53.150;18.172;2023-09-19T10:33:00;100582.20;;;24.32;55.59
77450;BME280;66536;53.150;18.172;2023-09-19T10:35:49;100588.86;;;24.46;54.61
77450;BME280;66536;53.150;18.172;2023-09-19T10:38:24;100586.50;;;24.44;54.34
77450;BME280;66536;53.150;18.172;2023-09-19T10:41:14;100583.25;;;24.37;54.00
77450;BME280;66536;53.150;18.172;2023-09-19T10:43:51;100589.23;;;24.23;53.87
77450;BME280;66536;53.150;18.172;2023-09-19T10:46:37;100589.73;;;24.10;53.99
77450;BME280;66536;53.150;18.172;2023-09-19T10:49:25;100592.42;;;24.05;53.62
77450;BME280;66536;53.150;18.172;2023-09-19T10:52:06;100580.08;;;24.09;53.39
77450;BME280;66536;53.150;18.172;2023-09-19T10:54:50;100590.20;;;24.14;52.83
77450;BME280;66536;53.150;18.172;2023-09-19T10:57:34;100583.04;;;24.17;52.78
77450;BME280;66536;53.150;18.172;2023-09-19T11:00:21;100583.45;;;24.26;53.03
77450;BME280;66536;53.150;18.172;2023-09-19T11:06:09;100576.55;;;24.62;53.05
77450;BME280;66536;53.150;18.172;2023-09-19T11:08:56;100575.80;;;24.65;51.64
77450;BME280;66536;53.150;18.172;2023-09-19T11:12:02;100571.02;;;24.41;51.65
77450;BME280;66536;53.150;18.172;2023-09-19T11:14:39;100562.45;;;24.25;52.09
77450;BME280;66536;53.150;18.172;2023-09-19T11:17:31;100560.81;;;24.16;52.18
77450;BME280;66536;53.150;18.172;2023-09-19T11:20:22;100567.95;;;24.09;52.57
77450;BME280;66536;53.150;18.172;2023-09-19T11:23:20;100568.13;;;24.11;52.26
77450;BME280;66536;53.150;18.172;2023-09-19T11:25:55;100569.33;;;23.99;52.30
77450;BME280;66536;53.150;18.172;2023-09-19T11:28:43;100579.43;;;23.93;51.97
77450;BME280;66536;53.150;18.172;2023-09-19T11:31:44;100586.25;;;23.72;52.23
77450;BME280;66536;53.150;18.172;2023-09-19T11:34:42;100599.71;;;23.65;52.03
77450;BME280;66536;53.150;18.172;2023-09-19T11:44:33;100578.20;;;25.18;49.13
77450;BME280;66536;53.150;18.172;2023-09-19T11:47:28;100581.89;;;25.60;48.65
77450;BME280;66536;53.150;18.172;2023-09-19T11:50:23;100588.94;;;25.64;47.14
77450;BME280;66536;53.150;18.172;2023-09-19T11:53:17;100590.36;;;25.57;46.87
77450;BME280;66536;53.150;18.172;2023-09-19T11:56:11;100590.17;;;25.47;44.50
77450;BME280;66536;53.150;18.172;2023-09-19T11:58:54;100596.98;;;25.26;44.70
77450;BME280;66536;53.150;18.172;2023-09-19T12:01:52;100584.04;;;25.07;44.52
77450;BME280;66536;53.150;18.172;2023-09-19T12:04:47;100610.45;;;24.94;44.22
77450;BME280;66536;53.150;18.172;2023-09-19T12:07:46;100611.45;;;24.71;44.47
77450;BME280;66536;53.150;18.172;2023-09-19T12:10:49;100611.36;;;24.51;45.40
77450;BME280;66536;53.150;18.172;2023-09-19T12:13:47;100610.66;;;24.51;45.40
77450;BME280;66536;53.150;18.172;2023-09-19T12:16:54;100615.59;;;24.41;44.44
77450;BME280;66536;53.150;18.172;2023-09-19T12:19:52;100617.92;;;24.39;43.91
77450;BME280;66536;53.150;18.172;2023-09-19T12:22:47;100624.13;;;24.56;43.17
77450;BME280;66536;53.150;18.172;2023-09-19T12:25:43;100624.99;;;24.37;42.31
77450;BME280;66536;53.150;18.172;2023-09-19T12:28:41;100630.57;;;24.24;42.50
77450;BME280;66536;53.150;18.172;2023-09-19T12:31:15;100632.04;;;24.30;43.46
77450;BME280;66536;53.150;18.172;2023-09-19T12:34:03;100624.45;;;24.47;43.55
77450;BME280;66536;53.150;18.172;2023-09-19T12:36:38;100623.84;;;24.68;42.98
77450;BME280;66536;53.150;18.172;2023-09-19T12:39:25;100632.64;;;24.83;42.70
77450;BME280;66536;53.150;18.172;2023-09-19T12:42:00;100635.23;;;24.90;42.00
77450;BME280;66536;53.150;18.172;2023-09-19T12:44:54;100636.38;;;25.01;40.85
77450;BME280;66536;53.150;18.172;2023-09-19T12:47:29;100634.34;;;24.96;41.64
77450;BME280;66536;53.150;18.172;2023-09-19T12:50:21;100639.23;;;24.93;42.27
77450;BME280;66536;53.150;18.172;2023-09-19T12:53:03;100638.19;;;24.97;41.72
77450;BME280;66536;53.150;18.172;2023-09-19T12:55:58;100649.29;;;24.98;41.89
77450;BME280;66536;53.150;18.172;2023-09-19T12:58:32;100657.45;;;24.84;42.48
77450;BME280;66536;53.150;18.172;2023-09-19T13:01:20;100649.31;;;24.50;43.33
77450;BME280;66536;53.150;18.172;2023-09-19T13:10:16;100661.30;;;23.89;44.66
77450;BME280;66536;53.150;18.172;2023-09-19T13:13:22;100649.17;;;23.75;44.54
77450;BME280;66536;53.150;18.172;2023-09-19T13:15:58;100648.27;;;23.75;44.41
77450;BME280;66536;53.150;18.172;2023-09-19T13:18:57;100664.92;;;23.72;43.23
77450;BME280;66536;53.150;18.172;2023-09-19T13:21:52;100665.61;;;23.57;42.24
77450;BME280;66536;53.150;18.172;2023-09-19T13:24:46;100666.47;;;23.33;42.67
77450;BME280;66536;53.150;18.172;2023-09-19T13:27:42;100664.17;;;23.11;43.61
77450;BME280;66536;53.150;18.172;2023-09-19T13:30:21;100659.86;;;23.22;44.11
77450;BME280;66536;53.150;18.172;2023-09-19T13:33:11;100663.34;;;23.55;43.53
77450;BME280;66536;53.150;18.172;2023-09-19T13:35:47;100667.88;;;23.58;43.08
77450;BME280;66536;53.150;18.172;2023-09-19T13:38:33;100666.24;;;23.60;43.61
77450;BME280;66536;53.150;18.172;2023-09-19T13:41:08;100680.58;;;23.60;42.24
77450;BME280;66536;53.150;18.172;2023-09-19T13:43:56;100670.64;;;23.55;42.86
77450;BME280;66536;53.150;18.172;2023-09-19T13:46:31;100669.10;;;23.57;42.52
77450;BME280;66536;53.150;18.172;2023-09-19T13:49:25;100661.33;;;23.67;43.49
77450;BME280;66536;53.150;18.172;2023-09-19T13:52:20;100648.67;;;23.92;42.88
77450;BME280;66536;53.150;18.172;2023-09-19T13:55:18;100649.74;;;24.21;43.12
77450;BME280;66536;53.150;18.172;2023-09-19T13:58:14;100651.73;;;24.58;41.80
77450;BME280;66536;53.150;18.172;2023-09-19T14:01:09;100654.10;;;24.75;39.38
77450;BME280;66536;53.150;18.172;2023-09-19T14:04:03;100659.77;;;24.74;39.44
77450;BME280;66536;53.150;18.172;2023-09-19T14:07:01;100649.17;;;24.73;38.57
77450;BME280;66536;53.150;18.172;2023-09-19T14:09:55;100666.29;;;24.70;39.05
77450;BME280;66536;53.150;18.172;2023-09-19T14:12:49;100668.73;;;24.74;38.88
77450;BME280;66536;53.150;18.172;2023-09-19T14:15:49;100660.18;;;24.63;38.65
77450;BME280;66536;53.150;18.172;2023-09-19T14:18:23;100663.04;;;24.47;40.14
77450;BME280;66536;53.150;18.172;2023-09-19T14:21:10;100661.33;;;24.45;40.32
77450;BME280;66536;53.150;18.172;2023-09-19T14:23:44;100665.59;;;24.44;40.17
77450;BME280;66536;53.150;18.172;2023-09-19T14:26:31;100666.89;;;24.37;39.97
77450;BME280;66536;53.150;18.172;2023-09-19T14:29:05;100672.09;;;24.27;39.09
77450;BME280;66536;53.150;18.172;2023-09-19T14:31:53;100671.27;;;24.21;40.10
77450;BME280;66536;53.150;18.172;2023-09-19T14:34:29;100674.17;;;24.21;39.39
77450;BME280;66536;53.150;18.172;2023-09-19T14:37:22;100667.36;;;24.21;39.93
77450;BME280;66536;53.150;18.172;2023-09-19T14:39:56;100669.05;;;24.27;40.02
77450;BME280;66536;53.150;18.172;2023-09-19T14:42:48;100665.26;;;24.35;39.61
77450;BME280;66536;53.150;18.172;2023-09-19T14:45:21;100689.93;;;24.34;38.72
77450;BME280;66536;53.150;18.172;2023-09-19T14:48:08;100687.30;;;24.24;38.89